createdAt,value
2018-07-25T00:01:07.606Z,26.41
2018-07-25T00:03:36.331Z,26.35
2018-07-25T00:06:05.118Z,26.37
2018-07-25T00:08:33.875Z,26.38
2018-07-25T00:11:02.676Z,26.34
2018-07-25T00:13:31.383Z,26.41
2018-07-25T00:16:01.345Z,26.40
2018-07-25T00:18:30.033Z,26.39
2018-07-25T00:20:58.856Z,26.39
2018-07-25T00:23:27.612Z,26.42
2018-07-25T00:25:56.406Z,26.40
2018-07-25T00:31:16.375Z,26.36
2018-07-25T00:33:45.219Z,26.40
2018-07-25T00:36:14.074Z,26.38
2018-07-25T00:38:42.880Z,26.38
2018-07-25T00:44:01.831Z,26.44
2018-07-25T00:46:31.262Z,26.40
2018-07-25T00:49:00.081Z,26.41
2018-07-25T00:51:28.923Z,26.42
2018-07-25T00:53:58.380Z,26.42
2018-07-25T00:56:27.099Z,26.41
2018-07-25T00:58:55.948Z,26.34
2018-07-25T01:01:25.150Z,26.38
2018-07-25T01:03:53.864Z,26.38
2018-07-25T01:06:22.797Z,26.34
2018-07-25T01:08:51.654Z,26.28
2018-07-25T01:11:20.434Z,26.32
2018-07-25T01:13:49.258Z,26.31
2018-07-25T01:16:18.314Z,26.28
2018-07-25T01:18:47.138Z,26.33
2018-07-25T01:21:15.884Z,26.31
2018-07-25T01:23:44.703Z,26.30
2018-07-25T01:26:13.500Z,26.29
2018-07-25T01:28:42.496Z,26.26
2018-07-25T01:31:11.258Z,26.23
2018-07-25T01:33:40.118Z,26.24
2018-07-25T01:36:08.890Z,26.25
2018-07-25T01:38:37.703Z,26.22
2018-07-25T01:41:06.504Z,26.23
2018-07-25T01:43:35.216Z,26.22
2018-07-25T01:46:04.095Z,26.15
2018-07-25T01:48:32.828Z,26.16
2018-07-25T01:51:01.538Z,26.14
2018-07-25T01:53:30.296Z,26.17
2018-07-25T01:55:59.082Z,26.13
2018-07-25T01:58:28.566Z,26.10
2018-07-25T02:00:57.297Z,26.18
2018-07-25T02:03:26.012Z,26.10
2018-07-25T02:05:54.860Z,26.08
2018-07-25T02:08:23.732Z,26.11
2018-07-25T02:10:52.640Z,26.13
2018-07-25T02:13:21.708Z,26.03
2018-07-25T02:15:51.079Z,26.04
2018-07-25T02:18:19.908Z,26.02
2018-07-25T02:20:48.676Z,26.03
2018-07-25T02:23:17.541Z,26.00
2018-07-25T02:25:46.387Z,25.99
2018-07-25T02:28:15.264Z,26.01
2018-07-25T02:30:44.004Z,26.03
2018-07-25T02:33:12.762Z,26.01
2018-07-25T02:35:41.703Z,26.00
2018-07-25T02:38:10.468Z,26.00
2018-07-25T02:40:39.321Z,25.98
2018-07-25T02:43:08.067Z,25.95
2018-07-25T02:45:41.760Z,25.98
2018-07-25T02:48:10.562Z,25.99
2018-07-25T02:50:39.315Z,25.97
2018-07-25T02:53:08.211Z,25.99
2018-07-25T02:55:37.059Z,25.97
2018-07-25T02:58:05.994Z,25.97
2018-07-25T03:00:35.416Z,26.00
2018-07-25T03:03:04.512Z,26.04
2018-07-25T03:05:33.341Z,26.05
2018-07-25T03:08:02.048Z,26.01
2018-07-25T03:10:30.815Z,26.03
2018-07-25T03:12:59.564Z,26.06
2018-07-25T03:15:28.574Z,26.04
2018-07-25T03:17:57.505Z,26.10
2018-07-25T03:20:27.399Z,26.12
2018-07-25T03:22:56.279Z,26.13
2018-07-25T03:25:25.032Z,26.12
2018-07-25T03:27:53.844Z,26.13
2018-07-25T03:30:22.535Z,26.15
2018-07-25T03:32:51.972Z,26.16
2018-07-25T03:35:20.734Z,26.13
2018-07-25T03:37:49.440Z,26.11
2018-07-25T03:40:18.197Z,26.12
2018-07-25T03:42:47.177Z,26.15
2018-07-25T03:45:16.661Z,26.11
2018-07-25T03:47:45.372Z,26.11
2018-07-25T03:50:14.096Z,26.12
2018-07-25T03:52:43.117Z,26.10
2018-07-25T03:55:11.885Z,26.11
2018-07-25T03:57:41.384Z,26.12
2018-07-25T04:00:10.900Z,26.15
2018-07-25T04:02:39.655Z,26.18
2018-07-25T04:05:08.686Z,26.16
2018-07-25T04:07:37.417Z,26.11
2018-07-25T04:10:06.891Z,26.16
2018-07-25T04:12:36.563Z,26.10
2018-07-25T04:15:05.355Z,26.20
2018-07-25T04:17:38.445Z,26.21
2018-07-25T04:20:07.719Z,26.22
2018-07-25T04:22:36.453Z,26.20
2018-07-25T04:25:05.768Z,26.20
2018-07-25T04:27:35.082Z,26.24
2018-07-25T04:30:04.483Z,26.26
2018-07-25T04:32:33.338Z,26.24
2018-07-25T04:35:02.680Z,26.22
2018-07-25T04:37:31.655Z,26.21
2018-07-25T04:40:00.376Z,26.22
2018-07-25T04:42:29.110Z,26.19
2018-07-25T04:44:57.824Z,26.24
2018-07-25T04:47:26.926Z,26.32
2018-07-25T04:49:56.071Z,26.31
2018-07-25T04:52:26.463Z,26.34
2018-07-25T04:54:55.235Z,26.30
2018-07-25T04:57:25.152Z,26.35
2018-07-25T04:59:54.288Z,26.37
2018-07-25T05:02:23.057Z,26.40
2018-07-25T05:04:52.105Z,26.37
2018-07-25T05:07:20.847Z,26.45
2018-07-25T05:09:49.858Z,26.47
2018-07-25T05:12:18.606Z,26.47
2018-07-25T05:14:47.339Z,26.45
2018-07-25T05:17:16.083Z,26.48
2018-07-25T05:19:44.972Z,26.50
2018-07-25T05:22:13.741Z,26.46
2018-07-25T05:24:42.586Z,26.45
2018-07-25T05:27:11.440Z,26.48
2018-07-25T05:29:40.178Z,26.47
2018-07-25T05:32:09.176Z,26.54
2018-07-25T05:34:37.899Z,26.49
2018-07-25T05:37:06.638Z,26.54
2018-07-25T05:39:35.351Z,26.55
2018-07-25T05:42:04.275Z,26.57
2018-07-25T05:44:33.176Z,26.61
2018-07-25T05:47:01.897Z,26.61
2018-07-25T05:49:30.762Z,26.64
2018-07-25T05:51:59.489Z,26.65
2018-07-25T05:54:28.802Z,26.67
2018-07-25T05:56:57.693Z,26.68
2018-07-25T05:59:26.472Z,26.71
2018-07-25T06:01:55.212Z,26.74
2018-07-25T06:04:24.086Z,26.75
2018-07-25T06:06:52.893Z,26.79
2018-07-25T06:09:21.647Z,26.87
2018-07-25T06:11:50.503Z,26.84
2018-07-25T06:14:19.461Z,26.88
2018-07-25T06:16:48.484Z,26.90
2018-07-25T06:19:17.256Z,26.92
2018-07-25T06:21:46.000Z,26.95
2018-07-25T06:24:14.758Z,27.00
2018-07-25T06:26:43.474Z,27.04
2018-07-25T06:29:12.230Z,27.07
2018-07-25T06:31:41.161Z,27.13
2018-07-25T06:34:09.923Z,27.17
2018-07-25T06:36:38.697Z,27.21
2018-07-25T06:39:10.037Z,27.26
2018-07-25T06:41:38.843Z,27.29
2018-07-25T06:44:07.871Z,27.34
2018-07-25T06:46:36.584Z,27.36
2018-07-25T06:49:05.992Z,27.38
2018-07-25T06:51:34.937Z,27.40
2018-07-25T06:54:03.702Z,27.42
2018-07-25T06:56:33.172Z,27.48
2018-07-25T06:59:01.890Z,27.48
2018-07-25T07:01:30.933Z,27.51
2018-07-25T07:03:59.827Z,27.53
2018-07-25T07:06:28.591Z,27.65
2018-07-25T07:08:57.483Z,27.77
2018-07-25T07:11:26.301Z,27.86
2018-07-25T07:13:55.217Z,27.94
2018-07-25T07:16:24.875Z,27.96
2018-07-25T07:18:53.698Z,28.02
2018-07-25T07:21:22.484Z,28.11
2018-07-25T07:23:51.245Z,28.21
2018-07-25T07:26:20.332Z,28.23
2018-07-25T07:28:49.156Z,28.32
2018-07-25T07:31:18.422Z,28.37
2018-07-25T07:33:47.737Z,28.40
2018-07-25T07:36:19.051Z,28.49
2018-07-25T07:38:47.949Z,28.45
2018-07-25T07:41:16.841Z,28.41
2018-07-25T07:43:45.667Z,28.41
2018-07-25T07:46:16.112Z,28.44
2018-07-25T07:48:45.917Z,28.43
2018-07-25T07:51:14.767Z,28.45
2018-07-25T07:53:44.329Z,28.53
2018-07-25T07:56:14.065Z,28.61
2018-07-25T07:58:43.087Z,28.65
2018-07-25T08:01:11.927Z,28.65
2018-07-25T08:03:41.339Z,28.68
2018-07-25T08:06:13.033Z,28.65
2018-07-25T08:08:41.821Z,28.69
2018-07-25T08:11:12.865Z,28.68
2018-07-25T08:13:42.112Z,28.73
2018-07-25T08:16:10.861Z,28.81
2018-07-25T08:18:39.808Z,28.81
2018-07-25T08:21:09.151Z,28.86
2018-07-25T08:23:37.856Z,28.88
2018-07-25T08:26:06.763Z,28.93
2018-07-25T08:28:35.523Z,28.89
2018-07-25T08:31:04.247Z,28.88
2018-07-25T08:33:34.427Z,28.95
2018-07-25T08:36:03.235Z,29.02
2018-07-25T08:38:43.588Z,29.03
2018-07-25T08:41:12.407Z,29.04
2018-07-25T08:43:42.244Z,29.07
2018-07-25T08:46:11.910Z,29.06
2018-07-25T08:48:40.763Z,29.08
2018-07-25T08:51:09.559Z,29.10
2018-07-25T08:53:39.177Z,29.12
2018-07-25T08:56:08.116Z,29.10
2018-07-25T08:58:36.976Z,29.06
2018-07-25T09:01:05.738Z,29.12
2018-07-25T09:03:34.530Z,29.23
2018-07-25T09:06:03.374Z,29.25
2018-07-25T09:08:32.895Z,29.21
2018-07-25T09:11:02.750Z,29.26
2018-07-25T09:13:31.466Z,29.28
2018-07-25T09:16:00.426Z,29.34
2018-07-25T09:18:29.177Z,29.41
2018-07-25T09:20:58.752Z,29.36
2018-07-25T09:23:27.533Z,29.33
2018-07-25T09:25:56.309Z,29.35
2018-07-25T09:28:25.040Z,29.37
2018-07-25T09:30:55.346Z,29.36
2018-07-25T09:33:24.895Z,29.36
2018-07-25T09:35:53.656Z,29.39
2018-07-25T09:38:22.466Z,29.39
2018-07-25T09:40:51.225Z,29.41
2018-07-25T09:43:20.702Z,29.42
2018-07-25T09:45:49.470Z,29.41
2018-07-25T09:48:18.425Z,29.39
2018-07-25T09:50:47.914Z,29.36
2018-07-25T09:53:17.443Z,29.37
2018-07-25T09:55:47.264Z,29.44
2018-07-25T09:58:16.628Z,29.54
2018-07-25T10:00:47.560Z,29.56
2018-07-25T10:03:16.481Z,29.61
2018-07-25T10:05:45.656Z,29.62
2018-07-25T10:08:15.111Z,29.63
2018-07-25T10:10:44.887Z,29.72
2018-07-25T10:13:14.006Z,29.72
2018-07-25T10:15:45.098Z,29.77
2018-07-25T10:18:15.049Z,29.78
2018-07-25T10:20:44.993Z,29.86
2018-07-25T10:23:14.080Z,29.78
2018-07-25T10:25:43.007Z,29.83
2018-07-25T10:28:11.931Z,29.93
2018-07-25T10:30:40.695Z,30.12
2018-07-25T10:33:09.546Z,30.27
2018-07-25T10:35:38.291Z,30.66
2018-07-25T10:38:07.293Z,30.88
2018-07-25T10:40:36.999Z,30.92
2018-07-25T10:43:05.735Z,30.85
2018-07-25T10:45:34.553Z,31.98
2018-07-25T10:48:03.353Z,32.92
2018-07-25T10:50:32.980Z,33.55
2018-07-25T10:53:02.398Z,34.69
2018-07-25T10:55:31.444Z,35.04
2018-07-25T10:58:00.318Z,34.55
2018-07-25T11:00:29.205Z,32.63
2018-07-25T11:02:58.129Z,31.93
2018-07-25T11:05:26.835Z,31.65
2018-07-25T11:07:55.723Z,33.61
2018-07-25T11:10:24.498Z,34.51
2018-07-25T11:12:53.343Z,35.57
2018-07-25T11:15:22.124Z,34.27
2018-07-25T11:17:51.006Z,32.58
2018-07-25T11:20:19.784Z,32.02
2018-07-25T11:22:48.585Z,31.67
2018-07-25T11:25:17.330Z,31.41
2018-07-25T11:27:46.106Z,31.26
2018-07-25T11:30:14.840Z,31.09
2018-07-25T11:32:43.604Z,30.98
2018-07-25T11:35:12.388Z,30.96
2018-07-25T11:37:41.118Z,30.98
2018-07-25T11:40:09.945Z,30.97
2018-07-25T11:42:38.718Z,30.99
2018-07-25T11:45:07.446Z,30.94
2018-07-25T11:47:36.350Z,30.88
2018-07-25T11:50:05.251Z,30.89
2018-07-25T11:52:35.085Z,30.91
2018-07-25T11:55:05.223Z,30.88
2018-07-25T11:57:34.406Z,30.85
2018-07-25T12:00:03.421Z,30.81
2018-07-25T12:02:32.504Z,30.77
2018-07-25T12:05:01.863Z,30.72
2018-07-25T12:07:30.909Z,30.68
2018-07-25T12:09:59.888Z,30.65
2018-07-25T12:12:29.847Z,30.65
2018-07-25T12:14:59.078Z,30.68
2018-07-25T12:17:28.438Z,30.70
2018-07-25T12:19:57.618Z,30.74
2018-07-25T12:22:27.036Z,30.77
2018-07-25T12:24:56.235Z,30.76
2018-07-25T12:27:25.453Z,30.79
2018-07-25T12:29:54.332Z,30.71
2018-07-25T12:32:23.737Z,30.66
2018-07-25T12:34:53.365Z,30.62
2018-07-25T12:37:22.634Z,30.56
2018-07-25T12:39:53.238Z,30.50
2018-07-25T12:42:22.794Z,30.49
2018-07-25T12:44:53.097Z,30.47
2018-07-25T12:47:21.871Z,30.46
2018-07-25T12:49:51.180Z,30.43
2018-07-25T12:52:20.295Z,30.39
2018-07-25T12:54:49.434Z,30.39
2018-07-25T12:57:19.411Z,30.39
2018-07-25T12:59:48.552Z,30.37
2018-07-25T13:02:17.893Z,30.36
2018-07-25T13:04:47.162Z,30.36
2018-07-25T13:07:16.335Z,30.36
2018-07-25T13:09:45.132Z,30.38
2018-07-25T13:12:14.588Z,30.37
2018-07-25T13:14:43.990Z,30.35
2018-07-25T13:17:14.104Z,30.35
2018-07-25T13:19:43.043Z,30.40
2018-07-25T13:22:13.464Z,30.43
2018-07-25T13:24:44.150Z,30.44
2018-07-25T13:27:15.726Z,30.45
2018-07-25T13:29:45.991Z,30.48
2018-07-25T13:32:14.908Z,30.44
2018-07-25T13:34:43.740Z,30.43
2018-07-25T13:37:12.790Z,30.46
2018-07-25T13:39:42.341Z,30.43
2018-07-25T13:42:11.114Z,30.43
2018-07-25T13:44:39.917Z,30.44
2018-07-25T13:47:09.002Z,30.44
2018-07-25T13:49:37.863Z,30.39
2018-07-25T13:52:06.746Z,30.42
